MAPA DE AEROPUERTO

INFORMACIÓN METAR y TAF

METAR FOR LECH
ADDS - METARS form results

(1530 UTC 07 May 2021)
Data provider http://aviationweather.gov/metar/data/
 
METAR text: LECH 071500Z AUTO 14008KT 100V180 9000 NSC 25/09 Q1017
Conditions at: LECH (CASTELLON , ES) observed 1500 UTC 07 May 2021
Temperature: 25.0°C (77°F)
Dewpoint: 9.0°C (48°F) [RH = 36%]
Pressure (altimeter): 30.03 inches Hg (1017.0 mb)
Winds: from the SE (140 degrees) at 9 MPH (8 knots; 4.1 m/s)
Visibility: 6 miles ( 9 km)
Ceiling: at least 12,000 feet AGL
Clouds: sky clear below 12,000 feet AGL
Weather: no significant weather observed at this time